Terminal Aerodrome Forecast
Issued by NWS

Home | Current Version | Previous Version | Text Only | Print | Product List | Glossary Off
Versions: 1 2 3 4 5 6 7 8 9 10 11 12 13 14 15 16 17 18 19 20 21 22

000
FTUS43 KBIS 050041 AAA
TAFJMS
TAF AMD
KJMS 050041Z 0501/0524 19010KT 2SM TSRA SCT035 BKN045CB
     FM050200 19006KT P6SM SCT035 BKN100
     FM051500 31012KT P6SM VCTS SCT060 BKN100CB=

USA.gov is the U.S. government's official web portal to all federal, state and local government web resources and services.